Time;durP1;ratioP1;P1;durP2;ratioP2;P2;SDS_P1;SDS_P2;PMS_P1;PMS_P2;Temp;Humidity;BMP_temperature;BMP_pressure;BME280_temperature;BME280_humidity;BME280_pressure;Samples;Min_cycle;Max_cycle;Signal;HPM_P1;HPM_P2
2023/06/12 00:00:47;;;;;;;5.60;5.10;;;15.50;99.90;;;;;;5093369;28;20226;-78
2023/06/12 00:03:16;;;;;;;7.43;5.50;;;15.40;99.90;;;;;;5092147;28;20703;-76
2023/06/12 00:05:46;;;;;;;9.53;5.47;;;15.30;99.90;;;;;;5093406;28;20202;-78
2023/06/12 00:08:17;;;;;;;6.40;5.10;;;15.30;99.90;;;;;;5093752;28;20610;-76
2023/06/12 00:10:46;;;;;;;6.00;5.27;;;15.20;99.90;;;;;;5092914;28;20238;-78
2023/06/12 00:13:15;;;;;;;6.07;5.37;;;15.20;99.90;;;;;;5106173;28;20647;-77
2023/06/12 00:15:43;;;;;;;8.13;6.13;;;15.10;99.90;;;;;;5113401;28;20703;-76
2023/06/12 00:18:12;;;;;;;6.23;5.63;;;15.10;99.90;;;;;;5113450;28;20296;-78
2023/06/12 00:20:40;;;;;;;6.20;5.60;;;15.10;99.90;;;;;;5101112;28;20293;-76
2023/06/12 00:23:11;;;;;;;5.93;5.33;;;15.10;99.90;;;;;;5092654;28;20221;-76
2023/06/12 00:25:40;;;;;;;6.30;5.60;;;15.00;99.90;;;;;;5092659;28;20197;-76
2023/06/12 00:28:08;;;;;;;5.53;5.00;;;15.00;99.90;;;;;;5105297;28;20737;-76
2023/06/12 00:30:36;;;;;;;6.90;5.83;;;15.00;99.90;;;;;;5092825;28;20203;-78
2023/06/12 00:33:04;;;;;;;6.20;5.60;;;15.00;99.90;;;;;;5091969;28;20222;-77
2023/06/12 00:35:32;;;;;;;6.20;5.60;;;15.00;99.90;;;;;;5093043;28;20211;-77
2023/06/12 00:38:02;;;;;;;5.83;5.33;;;15.00;99.90;;;;;;5109831;28;20251;-77
2023/06/12 00:40:32;;;;;;;6.60;6.00;;;15.00;99.90;;;;;;5112861;28;20251;-76
2023/06/12 00:43:00;;;;;;;8.23;6.37;;;15.00;99.90;;;;;;5112813;28;20221;-78
2023/06/12 00:45:28;;;;;;;6.17;5.50;;;15.00;99.90;;;;;;5112767;28;20252;-77
2023/06/12 00:47:57;;;;;;;6.90;6.20;;;15.00;99.90;;;;;;5110644;28;20733;-78
2023/06/12 00:50:27;;;;;;;6.30;5.80;;;15.00;99.90;;;;;;5092605;28;20211;-76
2023/06/12 00:52:57;;;;;;;10.07;6.07;;;14.90;99.90;;;;;;5092151;28;20227;-79
2023/06/12 00:55:26;;;;;;;6.90;5.67;;;14.90;99.90;;;;;;5092289;28;20225;-77
2023/06/12 00:57:55;;;;;;;6.63;5.60;;;14.90;99.90;;;;;;5092353;28;20691;-78
2023/06/12 01:00:24;;;;;;;6.80;6.10;;;14.80;99.90;;;;;;5092360;28;20210;-79
2023/06/12 01:03:03;;;;;;;6.53;5.87;;;14.70;99.90;;;;;;5092355;28;20293;-77
2023/06/12 01:05:36;;;;;;;7.63;6.10;;;14.60;99.90;;;;;;5092528;28;20214;-76
2023/06/12 01:08:28;;;;;;;6.80;6.10;;;14.60;99.90;;;;;;5092668;28;20199;-78
2023/06/12 01:11:02;;;;;;;7.03;6.37;;;14.70;99.90;;;;;;5091505;28;20276;-78
2023/06/12 01:13:33;;;;;;;7.20;6.50;;;14.70;99.90;;;;;;5092095;28;20213;-77
2023/06/12 01:16:01;;;;;;;7.03;6.33;;;14.70;99.90;;;;;;5092426;28;20215;-77
2023/06/12 01:18:32;;;;;;;8.73;6.63;;;14.60;99.90;;;;;;5092311;28;20645;-77
2023/06/12 01:21:04;;;;;;;7.67;6.70;;;14.70;99.90;;;;;;5092551;28;20230;-77
2023/06/12 01:23:58;;;;;;;7.93;6.70;;;14.80;99.90;;;;;;5091671;28;20730;-78
2023/06/12 01:26:51;;;;;;;6.97;6.30;;;14.90;99.90;;;;;;5092743;28;20202;-79
2023/06/12 01:29:53;;;;;;;8.57;6.33;;;14.90;99.90;;;;;;5093241;28;20220;-79
2023/06/12 01:32:24;;;;;;;6.43;5.83;;;14.90;99.90;;;;;;5092876;28;20584;-79
2023/06/12 01:34:57;;;;;;;7.00;6.30;;;15.00;99.90;;;;;;5095840;28;20214;-77
2023/06/12 01:37:32;;;;;;;6.93;6.23;;;15.00;99.90;;;;;;5112835;28;20210;-78
2023/06/12 01:40:05;;;;;;;7.63;6.17;;;15.00;99.90;;;;;;5107054;28;20206;-78
2023/06/12 01:42:33;;;;;;;7.57;5.90;;;15.00;99.90;;;;;;5092198;28;20259;-78
2023/06/12 01:45:02;;;;;;;6.83;6.23;;;15.10;99.90;;;;;;5091916;28;20612;-77
2023/06/12 01:47:31;;;;;;;7.47;6.23;;;15.00;99.90;;;;;;5092898;28;20214;-78
2023/06/12 01:50:00;;;;;;;7.10;6.40;;;15.00;99.90;;;;;;5091894;28;20562;-76
2023/06/12 01:52:28;;;;;;;6.90;6.20;;;14.90;99.90;;;;;;5092184;28;20207;-80
2023/06/12 01:54:58;;;;;;;7.50;6.80;;;14.90;99.90;;;;;;5092211;28;20222;-78
2023/06/12 01:57:27;;;;;;;7.50;6.70;;;14.90;99.90;;;;;;5092414;28;20535;-77
2023/06/12 01:59:56;;;;;;;7.33;6.60;;;14.80;99.90;;;;;;5092311;28;20226;-78
2023/06/12 02:02:24;;;;;;;7.57;6.80;;;14.80;99.90;;;;;;5092352;28;20238;-77
2023/06/12 02:04:54;;;;;;;8.43;7.37;;;14.70;99.90;;;;;;5095010;28;20199;-79
2023/06/12 02:07:22;;;;;;;8.50;7.13;;;14.70;99.90;;;;;;5096147;28;20261;-79
2023/06/12 02:09:50;;;;;;;7.47;6.73;;;14.60;99.90;;;;;;5095323;28;20215;-78
2023/06/12 02:12:18;;;;;;;8.00;7.20;;;14.60;99.90;;;;;;5095379;28;20612;-78
2023/06/12 02:14:47;;;;;;;8.00;7.20;;;14.60;99.90;;;;;;5096958;28;20222;-77
2023/06/12 02:17:17;;;;;;;7.50;6.80;;;14.60;99.90;;;;;;5095234;28;20214;-77
2023/06/12 02:19:47;;;;;;;8.80;7.07;;;14.70;99.90;;;;;;5092552;28;20216;-77
2023/06/12 02:22:16;;;;;;;7.90;7.10;;;14.70;99.90;;;;;;5093334;28;20234;-76
2023/06/12 02:24:46;;;;;;;8.13;7.10;;;14.70;99.90;;;;;;5096076;28;20286;-77
2023/06/12 02:27:14;;;;;;;7.53;6.80;;;14.70;99.90;;;;;;5095069;28;20206;-78
2023/06/12 02:29:42;;;;;;;8.43;7.00;;;14.60;99.90;;;;;;5095582;28;20234;-77
2023/06/12 02:32:12;;;;;;;7.40;6.70;;;14.60;99.90;;;;;;5094749;28;20557;-77
2023/06/12 02:34:40;;;;;;;7.80;7.10;;;14.50;99.90;;;;;;5108541;28;20230;-79
2023/06/12 02:37:10;;;;;;;9.20;7.17;;;14.50;99.90;;;;;;5115353;28;20740;-79
2023/06/12 02:39:41;;;;;;;8.73;7.63;;;14.40;99.90;;;;;;5115082;28;20210;-76
2023/06/12 02:42:10;;;;;;;7.80;7.00;;;14.30;99.90;;;;;;5100344;28;20688;-76
2023/06/12 02:44:38;;;;;;;8.50;7.60;;;14.30;99.90;;;;;;5094675;28;20203;-78
2023/06/12 02:47:07;;;;;;;8.50;7.47;;;14.30;99.90;;;;;;5095238;28;20618;-77
2023/06/12 02:49:35;;;;;;;10.40;7.90;;;14.20;99.90;;;;;;5094775;28;20225;-78
2023/06/12 02:52:04;;;;;;;8.03;7.23;;;14.20;99.90;;;;;;5093959;28;20581;-77
2023/06/12 02:54:33;;;;;;;8.40;7.60;;;14.10;99.90;;;;;;5094881;28;20599;-78
2023/06/12 02:57:02;;;;;;;7.63;6.87;;;14.10;99.90;;;;;;5094630;28;20264;-78
2023/06/12 02:59:30;;;;;;;10.93;8.33;;;14.00;99.90;;;;;;5094706;28;20234;-77
2023/06/12 03:01:58;;;;;;;9.17;8.10;;;14.10;99.90;;;;;;5094152;28;20357;-76
2023/06/12 03:04:27;;;;;;;10.23;8.30;;;14.00;99.90;;;;;;5094654;28;20572;-77
2023/06/12 03:06:55;;;;;;;9.67;8.67;;;14.00;99.90;;;;;;5094252;28;20714;-77
2023/06/12 03:09:24;;;;;;;10.73;8.50;;;14.00;99.90;;;;;;5094562;28;20207;-77
2023/06/12 03:11:53;;;;;;;8.70;7.80;;;14.10;99.90;;;;;;5094818;28;20309;-77
2023/06/12 03:14:24;;;;;;;9.63;8.67;;;14.00;99.90;;;;;;5094279;28;20226;-78
2023/06/12 03:16:53;;;;;;;9.70;8.57;;;14.00;99.90;;;;;;5094449;28;20730;-78
2023/06/12 03:19:22;;;;;;;9.47;8.50;;;13.90;99.90;;;;;;5094003;28;20243;-74
2023/06/12 03:21:50;;;;;;;10.13;9.20;;;13.90;99.90;;;;;;5093875;28;20246;-78
2023/06/12 03:24:20;;;;;;;10.60;8.70;;;13.80;99.90;;;;;;5094118;28;20664;-76
2023/06/12 03:26:49;;;;;;;10.67;9.60;;;13.80;99.90;;;;;;5111741;28;20207;-77
2023/06/12 03:29:17;;;;;;;10.40;9.40;;;13.80;99.90;;;;;;5113733;28;20667;-76
2023/06/12 03:31:46;;;;;;;9.90;9.00;;;13.80;99.90;;;;;;5113600;28;20210;-77
2023/06/12 03:34:16;;;;;;;11.37;10.23;;;13.70;99.90;;;;;;5111715;28;20271;-79
2023/06/12 03:36:44;;;;;;;10.60;9.60;;;13.70;99.90;;;;;;5114371;28;20306;-79
2023/06/12 03:39:12;;;;;;;11.20;10.00;;;13.70;99.90;;;;;;5113869;28;20221;-77
2023/06/12 03:41:52;;;;;;;11.27;10.03;;;13.70;99.90;;;;;;5097220;28;20206;-77
2023/06/12 03:44:20;;;;;;;11.30;10.30;;;13.70;99.90;;;;;;5093858;28;20238;-77
2023/06/12 03:46:49;;;;;;;11.40;9.80;;;13.70;99.90;;;;;;5093701;28;20202;-78
2023/06/12 03:49:18;;;;;;;10.00;9.10;;;13.70;99.90;;;;;;5094028;28;20214;-79
2023/06/12 03:51:47;;;;;;;10.73;9.67;;;13.70;99.90;;;;;;5093546;28;20657;-79
2023/06/12 03:54:15;;;;;;;10.90;9.83;;;13.70;99.90;;;;;;5093419;28;20233;-78
2023/06/12 03:56:43;;;;;;;12.77;10.27;;;13.70;99.90;;;;;;5093670;28;20256;-77
2023/06/12 03:59:11;;;;;;;11.07;9.93;;;13.70;99.90;;;;;;5093565;28;20234;-77
2023/06/12 04:01:42;;;;;;;10.87;9.70;;;13.70;99.90;;;;;;5093224;28;20205;-76
2023/06/12 04:04:12;;;;;;;11.73;10.57;;;13.70;99.90;;;;;;5093269;28;20286;-77
2023/06/12 04:06:40;;;;;;;11.67;10.50;;;13.70;99.90;;;;;;5092486;28;20725;-76
2023/06/12 04:09:12;;;;;;;12.93;10.73;;;13.80;99.90;;;;;;5093695;28;20344;-77
2023/06/12 04:11:40;;;;;;;12.10;10.83;;;13.80;99.90;;;;;;5093080;28;20269;-77
2023/06/12 04:14:09;;;;;;;11.40;10.20;;;13.90;99.90;;;;;;5093018;28;20213;-75
2023/06/12 04:16:37;;;;;;;11.17;9.93;;;13.90;99.90;;;;;;5093009;28;20249;-77
2023/06/12 04:19:07;;;;;;;11.17;10.00;;;13.90;99.90;;;;;;5093110;28;20213;-76
2023/06/12 04:21:36;;;;;;;11.27;10.17;;;14.00;99.90;;;;;;5093250;28;20234;-78
2023/06/12 04:24:13;;;;;;;11.53;10.07;;;14.00;99.90;;;;;;5092473;28;20274;-77
2023/06/12 04:26:43;;;;;;;11.00;10.00;;;14.00;99.90;;;;;;5093222;28;20259;-78
2023/06/12 04:29:12;;;;;;;11.13;9.43;;;14.10;99.90;;;;;;5093199;28;20183;-76
2023/06/12 04:31:40;;;;;;;10.40;9.40;;;14.10;99.90;;;;;;5101047;28;20206;-76
2023/06/12 04:34:09;;;;;;;12.07;9.70;;;14.20;99.90;;;;;;5092683;28;20644;-78
2023/06/12 04:36:39;;;;;;;10.80;9.00;;;14.20;99.90;;;;;;5092461;28;20716;-77
2023/06/12 04:39:11;;;;;;;10.73;9.63;;;14.30;99.90;;;;;;5094290;28;20229;-78
2023/06/12 04:41:40;;;;;;;11.00;9.23;;;14.40;99.90;;;;;;5093643;28;20233;-79
2023/06/12 04:44:09;;;;;;;9.97;9.07;;;14.40;99.90;;;;;;5092039;28;20226;-77
2023/06/12 04:46:37;;;;;;;9.80;8.80;;;14.40;99.90;;;;;;5092720;28;20199;-76
2023/06/12 04:49:05;;;;;;;9.40;7.63;;;14.50;99.90;;;;;;5092994;28;20207;-78
2023/06/12 04:51:33;;;;;;;11.43;8.83;;;14.60;99.90;;;;;;5092273;28;20676;-79
2023/06/12 04:54:04;;;;;;;10.50;8.37;;;14.70;99.90;;;;;;5092918;28;20253;-78
2023/06/12 04:56:33;;;;;;;8.97;8.07;;;14.80;99.90;;;;;;5092362;28;20241;-78
2023/06/12 04:59:01;;;;;;;8.67;7.77;;;14.80;99.90;;;;;;5092311;28;20223;-78
2023/06/12 05:01:30;;;;;;;7.77;6.97;;;14.90;99.90;;;;;;5092885;28;20210;-77
2023/06/12 05:03:58;;;;;;;8.83;7.37;;;15.00;99.90;;;;;;5093305;28;20207;-76
2023/06/12 05:06:28;;;;;;;8.57;7.77;;;15.10;99.90;;;;;;5092697;28;20203;-78
2023/06/12 05:08:56;;;;;;;9.27;7.50;;;15.20;99.90;;;;;;5092010;28;20211;-78
2023/06/12 05:11:26;;;;;;;10.10;7.00;;;15.20;99.90;;;;;;5092200;28;20292;-79
2023/06/12 05:13:54;;;;;;;7.93;6.97;;;15.30;99.90;;;;;;5092177;28;20211;-78
2023/06/12 05:16:22;;;;;;;7.90;7.00;;;15.40;99.90;;;;;;5109120;28;20222;-76
2023/06/12 05:18:51;;;;;;;8.17;7.00;;;15.50;99.90;;;;;;5112822;28;20259;-76
2023/06/12 05:21:19;;;;;;;7.53;6.73;;;15.50;99.90;;;;;;5112873;28;20256;-79
2023/06/12 05:23:50;;;;;;;9.37;6.80;;;15.60;99.90;;;;;;5097160;28;20207;-76
2023/06/12 05:26:18;;;;;;;7.87;7.00;;;15.70;99.90;;;;;;5091657;28;20302;-76
2023/06/12 05:28:47;;;;;;;9.00;6.53;;;15.80;99.90;;;;;;5092337;28;20234;-78
2023/06/12 05:31:16;;;;;;;7.70;6.90;;;15.90;99.90;;;;;;5092312;28;20241;-77
2023/06/12 05:33:44;;;;;;;7.13;6.27;;;16.00;99.90;;;;;;5091810;28;20290;-77
2023/06/12 05:36:12;;;;;;;11.10;6.40;;;16.10;99.90;;;;;;5092142;28;20296;-76
2023/06/12 05:38:46;;;;;;;11.53;6.53;;;16.20;99.90;;;;;;5091799;28;20221;-78
2023/06/12 05:41:15;;;;;;;6.93;6.10;;;16.30;99.90;;;;;;5091881;28;20696;-78
2023/06/12 05:43:45;;;;;;;8.13;6.37;;;16.40;99.90;;;;;;5091755;28;20210;-76
2023/06/12 05:46:15;;;;;;;9.60;6.30;;;16.60;99.90;;;;;;5092304;28;20290;-77
2023/06/12 05:48:43;;;;;;;10.67;5.97;;;16.80;99.90;;;;;;5091655;28;20211;-77
2023/06/12 05:51:12;;;;;;;8.30;6.07;;;17.30;99.90;;;;;;5092457;28;20195;-77
2023/06/12 05:53:44;;;;;;;7.50;5.73;;;18.10;99.90;;;;;;5092013;28;20635;-77
2023/06/12 05:56:13;;;;;;;8.67;5.37;;;19.10;99.90;;;;;;5093873;28;20222;-75
2023/06/12 05:58:42;;;;;;;6.30;5.50;;;20.00;99.90;;;;;;5096530;28;20608;-77
2023/06/12 06:01:11;;;;;;;7.10;4.80;;;21.10;99.90;;;;;;5095600;28;20242;-77
2023/06/12 06:03:42;;;;;;;8.57;5.47;;;21.70;98.00;;;;;;5113618;28;20206;-77
2023/06/12 06:06:13;;;;;;;6.80;4.73;;;22.00;95.90;;;;;;5116596;28;20206;-77
2023/06/12 06:08:42;;;;;;;7.40;5.07;;;22.40;95.00;;;;;;5116168;28;20716;-78
2023/06/12 06:11:11;;;;;;;7.70;4.93;;;23.00;93.00;;;;;;5096314;28;20234;-76
2023/06/12 06:13:41;;;;;;;5.50;4.67;;;23.30;91.10;;;;;;5116324;28;20296;-75
2023/06/12 06:16:10;;;;;;;5.40;4.90;;;23.60;90.00;;;;;;5116032;28;20228;-78
2023/06/12 06:18:41;;;;;;;5.93;4.90;;;23.60;89.60;;;;;;5113874;28;20242;-77
2023/06/12 06:21:11;;;;;;;6.63;4.90;;;23.70;86.90;;;;;;5099961;28;20282;-75
2023/06/12 06:23:40;;;;;;;6.07;4.70;;;24.00;87.10;;;;;;5106194;28;20221;-79
2023/06/12 06:26:10;;;;;;;5.70;4.83;;;24.70;84.10;;;;;;5112935;28;20247;-77
2023/06/12 06:28:38;;;;;;;5.03;4.40;;;25.20;78.00;;;;;;5114974;28;20259;-78
2023/06/12 06:31:07;;;;;;;6.20;4.93;;;25.20;77.30;;;;;;5113914;28;20225;-76
2023/06/12 06:33:36;;;;;;;6.97;4.60;;;24.70;78.00;;;;;;5113251;28;20226;-77
2023/06/12 06:36:06;;;;;;;5.78;4.72;;;25.30;78.60;;;;;;5114335;28;20672;-77
2023/06/12 06:38:35;;;;;;;7.40;4.65;;;25.60;74.20;;;;;;5112378;28;20202;-77
2023/06/12 06:41:03;;;;;;;6.13;4.65;;;26.30;72.50;;;;;;5113751;28;20206;-77
2023/06/12 06:43:31;;;;;;;6.72;4.68;;;27.00;68.60;;;;;;5114280;28;20224;-77
2023/06/12 06:46:00;;;;;;;7.25;4.90;;;26.90;64.80;;;;;;5096153;28;20207;-77
2023/06/12 06:48:28;;;;;;;9.18;4.70;;;26.50;66.20;;;;;;5095912;28;20199;-76
2023/06/12 06:50:57;;;;;;;5.75;4.28;;;26.70;67.20;;;;;;5098853;28;20207;-78
2023/06/12 06:53:26;;;;;;;5.55;4.70;;;27.00;62.50;;;;;;5095280;28;20210;-76
2023/06/12 06:55:54;;;;;;;6.15;4.28;;;27.50;63.60;;;;;;5095549;28;20210;-76
2023/06/12 06:58:23;;;;;;;7.15;4.47;;;28.30;59.80;;;;;;5095838;28;20390;-78
2023/06/12 07:00:51;;;;;;;6.40;4.80;;;28.80;57.90;;;;;;5095766;28;20207;-75
2023/06/12 07:03:19;;;;;;;5.97;4.43;;;28.10;56.30;;;;;;5094453;28;20203;-77
2023/06/12 07:05:48;;;;;;;4.60;4.20;;;28.80;56.30;;;;;;5115372;28;20302;-76
2023/06/12 07:08:17;;;;;;;9.07;4.55;;;29.30;56.60;;;;;;5114825;28;20206;-75
2023/06/12 07:10:46;;;;;;;5.10;4.15;;;29.20;54.00;;;;;;5115128;28;20241;-75
2023/06/12 07:13:15;;;;;;;5.20;3.90;;;29.80;50.70;;;;;;5109660;27;20234;-76
2023/06/12 07:15:43;;;;;;;5.90;4.28;;;30.00;50.50;;;;;;5109458;28;20206;-77
2023/06/12 07:18:11;;;;;;;4.30;3.88;;;30.30;49.50;;;;;;5114842;28;20252;-78
2023/06/12 07:20:41;;;;;;;4.78;4.07;;;30.00;49.50;;;;;;5114955;28;20660;-75
2023/06/12 07:23:09;;;;;;;5.78;4.13;;;29.40;49.90;;;;;;5104154;28;20210;-77
2023/06/12 07:25:37;;;;;;;6.57;4.50;;;29.60;48.40;;;;;;5095160;28;20218;-77
2023/06/12 07:28:07;;;;;;;4.55;4.10;;;29.20;49.10;;;;;;5112278;28;20220;-74
2023/06/12 07:30:36;;;;;;;7.53;4.07;;;30.00;49.40;;;;;;5108946;28;20221;-75
2023/06/12 07:33:04;;;;;;;5.75;4.22;;;29.40;48.60;;;;;;5094228;28;20726;-76
2023/06/12 07:35:32;;;;;;;4.50;4.10;;;28.50;49.60;;;;;;5094632;28;20265;-77
2023/06/12 07:38:00;;;;;;;6.53;4.05;;;29.90;48.20;;;;;;5094163;28;20223;-75
2023/06/12 07:40:29;;;;;;;6.88;4.10;;;30.40;47.60;;;;;;5094306;27;20294;-76
2023/06/12 07:42:58;;;;;;;7.95;4.32;;;30.80;46.50;;;;;;5093685;28;20291;-77
2023/06/12 07:45:27;;;;;;;5.60;4.30;;;31.20;44.10;;;;;;5094023;28;20685;-76
2023/06/12 07:47:57;;;;;;;6.15;4.43;;;31.40;44.40;;;;;;5094348;28;20202;-77
2023/06/12 07:50:26;;;;;;;6.25;4.05;;;31.40;44.20;;;;;;5094252;28;20206;-75
2023/06/12 07:52:54;;;;;;;5.90;3.95;;;31.00;44.40;;;;;;5093645;28;20242;-74
2023/06/12 07:55:23;;;;;;;5.40;4.15;;;31.80;43.00;;;;;;5094206;28;20210;-76
2023/06/12 07:57:51;;;;;;;6.28;4.13;;;31.40;41.40;;;;;;5093990;28;20671;-76
2023/06/12 08:00:20;;;;;;;6.65;4.10;;;31.80;41.50;;;;;;5093492;28;20207;-77
2023/06/12 08:02:54;;;;;;;10.52;4.18;;;32.00;40.70;;;;;;5093418;28;20278;-75
2023/06/12 08:05:24;;;;;;;5.05;4.20;;;32.60;39.30;;;;;;5093732;28;20206;-77
2023/06/12 08:07:52;;;;;;;4.65;3.88;;;32.00;40.40;;;;;;5093370;28;20205;-75
2023/06/12 08:10:21;;;;;;;5.07;4.10;;;31.90;40.80;;;;;;5093353;28;20238;-75
2023/06/12 08:12:49;;;;;;;7.13;3.92;;;32.00;42.10;;;;;;5093614;28;20293;-77
2023/06/12 08:15:19;;;;;;;5.82;3.80;;;31.90;40.60;;;;;;5093870;28;20211;-76
2023/06/12 08:17:51;;;;;;;7.68;4.13;;;32.10;42.20;;;;;;5093275;28;20226;-77
2023/06/12 08:20:19;;;;;;;8.05;4.18;;;31.90;40.10;;;;;;5092500;28;20194;-78
2023/06/12 08:22:49;;;;;;;8.05;4.22;;;32.60;40.60;;;;;;5093226;28;20214;-76
2023/06/12 08:25:18;;;;;;;6.15;4.13;;;33.20;37.80;;;;;;5099208;28;20221;-76
2023/06/12 08:27:46;;;;;;;7.40;3.83;;;32.50;36.00;;;;;;5113747;28;20202;-76
2023/06/12 08:30:16;;;;;;;8.88;3.92;;;31.80;39.80;;;;;;5113754;28;20202;-76
2023/06/12 08:32:45;;;;;;;8.77;4.13;;;32.10;38.70;;;;;;5110356;28;20214;-76
2023/06/12 08:35:15;;;;;;;6.30;3.97;;;31.80;36.60;;;;;;5093349;28;20692;-77
2023/06/12 08:37:44;;;;;;;6.30;3.72;;;32.10;35.20;;;;;;5093653;28;20235;-76
2023/06/12 08:40:12;;;;;;;9.00;4.20;;;31.90;38.00;;;;;;5094076;28;20279;-75
2023/06/12 08:42:45;;;;;;;5.03;3.47;;;31.70;37.60;;;;;;5093197;28;20257;-74
2023/06/12 08:45:15;;;;;;;5.72;3.60;;;32.20;36.40;;;;;;5093794;28;20664;-75
2023/06/12 08:47:50;;;;;;;5.03;3.60;;;32.40;34.40;;;;;;5093617;28;20203;-76
2023/06/12 08:50:21;;;;;;;4.88;3.88;;;32.80;33.50;;;;;;5093643;28;20238;-76
2023/06/12 08:52:51;;;;;;;7.60;4.00;;;31.00;34.30;;;;;;5092705;28;20218;-76
2023/06/12 08:55:22;;;;;;;7.72;4.07;;;31.10;34.80;;;;;;5093060;28;20616;-77
2023/06/12 08:57:51;;;;;;;4.45;3.40;;;30.20;36.90;;;;;;5092709;28;20237;-78
2023/06/12 09:00:21;;;;;;;6.95;3.75;;;30.80;36.00;;;;;;5093317;28;20218;-76
2023/06/12 09:02:52;;;;;;;4.35;3.60;;;30.40;37.90;;;;;;5092869;28;20298;-76
2023/06/12 09:05:27;;;;;;;5.43;4.00;;;30.40;36.30;;;;;;5093026;28;20207;-77
2023/06/12 09:07:58;;;;;;;6.22;3.78;;;29.40;36.60;;;;;;5093279;28;20209;-79
2023/06/12 09:10:26;;;;;;;4.72;3.58;;;29.30;36.30;;;;;;5092936;28;20671;-77
2023/06/12 09:12:55;;;;;;;4.32;3.40;;;29.40;36.10;;;;;;5092510;28;20207;-76
2023/06/12 09:15:23;;;;;;;4.13;3.33;;;29.90;36.10;;;;;;5092734;28;20417;-78
2023/06/12 09:17:52;;;;;;;4.47;3.78;;;30.40;31.80;;;;;;5092807;28;20259;-78
2023/06/12 09:20:28;;;;;;;6.43;3.40;;;29.50;33.30;;;;;;5093465;28;20246;-76
2023/06/12 09:23:01;;;;;;;6.60;3.60;;;30.00;33.80;;;;;;5096317;28;20210;-78
2023/06/12 09:25:35;;;;;;;4.88;3.70;;;30.30;33.70;;;;;;5113260;28;20228;-78
2023/06/12 09:28:04;;;;;;;3.83;3.40;;;30.30;30.20;;;;;;5112911;28;20220;-77
2023/06/12 09:30:33;;;;;;;6.68;3.60;;;30.80;30.90;;;;;;5113227;28;20284;-79
2023/06/12 09:33:03;;;;;;;6.60;3.40;;;30.70;32.00;;;;;;5104432;28;20626;-75
2023/06/12 09:35:32;;;;;;;5.25;3.80;;;30.40;32.30;;;;;;5092205;28;20217;-78
2023/06/12 09:38:04;;;;;;;6.07;3.72;;;29.90;31.00;;;;;;5092171;28;20305;-76
2023/06/12 09:40:36;;;;;;;6.15;3.40;;;30.40;30.70;;;;;;5091734;28;20210;-77
2023/06/12 09:43:06;;;;;;;4.22;3.42;;;30.40;30.20;;;;;;5092336;28;20749;-76
2023/06/12 09:45:34;;;;;;;5.32;3.60;;;31.10;31.00;;;;;;5092196;28;20696;-77
2023/06/12 09:48:05;;;;;;;5.70;3.47;;;31.70;29.20;;;;;;5092467;28;20219;-77
2023/06/12 09:50:35;;;;;;;5.18;3.10;;;30.40;29.70;;;;;;5092313;28;20213;-76
2023/06/12 09:53:03;;;;;;;4.47;3.13;;;30.30;29.10;;;;;;5106115;28;20198;-75
2023/06/12 09:55:32;;;;;;;4.15;3.65;;;30.90;32.00;;;;;;5112765;28;20245;-76
2023/06/12 09:58:02;;;;;;;7.78;3.92;;;31.10;29.80;;;;;;5109385;28;20234;-79
2023/06/12 10:00:31;;;;;;;5.22;3.40;;;30.90;29.10;;;;;;5092636;28;20221;-76
2023/06/12 10:03:05;;;;;;;6.03;3.60;;;31.40;28.80;;;;;;5091975;28;20210;-75
2023/06/12 10:05:37;;;;;;;7.05;3.35;;;31.60;28.10;;;;;;5092268;28;20260;-76
2023/06/12 10:08:07;;;;;;;5.35;3.60;;;32.70;28.00;;;;;;5099504;28;20249;-75
2023/06/12 10:10:36;;;;;;;4.57;3.42;;;33.10;29.30;;;;;;5113265;28;20283;-76
2023/06/12 10:13:05;;;;;;;5.88;3.90;;;33.30;29.90;;;;;;5112998;28;20591;-77
2023/06/12 10:15:35;;;;;;;6.50;4.00;;;33.10;27.40;;;;;;5112775;28;20217;-76
2023/06/12 10:18:04;;;;;;;4.53;3.25;;;33.10;27.00;;;;;;5093144;28;20230;-75
2023/06/12 10:20:33;;;;;;;5.10;3.50;;;32.50;29.50;;;;;;5092712;28;20234;-75
2023/06/12 10:23:05;;;;;;;6.78;3.50;;;31.40;28.20;;;;;;5102724;28;20214;-77
2023/06/12 10:25:34;;;;;;;4.13;3.30;;;31.20;29.90;;;;;;5102318;28;20206;-76
2023/06/12 10:28:06;;;;;;;5.75;3.35;;;31.20;29.40;;;;;;5092736;28;20203;-77
2023/06/12 10:30:34;;;;;;;4.65;3.15;;;31.60;27.30;;;;;;5092646;28;20210;-78
2023/06/12 10:33:13;;;;;;;6.55;3.60;;;31.20;28.90;;;;;;5092420;28;20207;-77
2023/06/12 10:35:42;;;;;;;3.58;3.28;;;31.70;27.80;;;;;;5092684;28;20270;-76
2023/06/12 10:38:13;;;;;;;4.55;3.67;;;31.40;28.90;;;;;;5092495;28;20246;-76
2023/06/12 10:40:41;;;;;;;6.97;3.33;;;31.20;27.50;;;;;;5092356;28;20214;-75
2023/06/12 10:43:22;;;;;;;4.05;3.20;;;31.70;29.10;;;;;;5094070;28;20209;-76
2023/06/12 10:45:57;;;;;;;4.93;3.50;;;31.20;28.50;;;;;;5096057;28;20203;-76
2023/06/12 10:48:28;;;;;;;4.97;3.17;;;30.70;29.70;;;;;;5098780;27;20294;-75
2023/06/12 10:50:58;;;;;;;4.72;3.42;;;30.40;29.80;;;;;;5096043;28;20210;-76
2023/06/12 10:53:29;;;;;;;4.93;3.45;;;30.60;28.60;;;;;;5097446;28;20210;-77
2023/06/12 10:56:05;;;;;;;5.80;3.60;;;29.60;28.30;;;;;;5096349;28;20293;-78
2023/06/12 10:58:37;;;;;;;8.88;3.42;;;29.80;30.30;;;;;;5109548;28;20222;-76
2023/06/12 11:01:09;;;;;;;4.32;3.20;;;30.70;32.60;;;;;;5117184;28;20191;-75
2023/06/12 11:03:42;;;;;;;6.60;3.25;;;31.10;28.10;;;;;;5116101;28;20267;-77
2023/06/12 11:06:15;;;;;;;5.25;3.05;;;30.50;28.00;;;;;;5116764;28;20210;-75
2023/06/12 11:08:47;;;;;;;3.33;3.03;;;30.30;29.70;;;;;;5098328;28;20264;-76
2023/06/12 11:11:16;;;;;;;5.68;3.30;;;30.40;30.10;;;;;;5096376;28;20239;-76
2023/06/12 11:13:46;;;;;;;4.95;3.25;;;30.50;28.70;;;;;;5096254;28;20440;-79
2023/06/12 11:16:15;;;;;;;6.80;3.30;;;30.50;28.90;;;;;;5097317;28;20543;-78
2023/06/12 11:18:44;;;;;;;5.60;3.67;;;30.70;26.70;;;;;;5097937;28;20627;-78
2023/06/12 11:21:13;;;;;;;5.03;3.13;;;30.40;27.60;;;;;;5104075;28;20202;-77
2023/06/12 11:23:42;;;;;;;5.85;3.28;;;30.40;27.70;;;;;;5116369;28;20267;-76
2023/06/12 11:26:18;;;;;;;6.28;3.20;;;30.50;27.70;;;;;;5111657;28;20211;-76
2023/06/12 11:28:49;;;;;;;7.47;3.15;;;30.70;28.10;;;;;;5096072;28;20237;-77
2023/06/12 11:31:18;;;;;;;8.27;3.10;;;29.90;27.10;;;;;;5095387;27;20576;-76
2023/06/12 11:33:46;;;;;;;4.88;2.90;;;29.80;27.70;;;;;;5095793;28;20251;-75
2023/06/12 11:36:15;;;;;;;5.95;3.63;;;29.20;27.50;;;;;;5095679;28;20210;-75
2023/06/12 11:38:43;;;;;;;3.15;2.70;;;28.70;29.40;;;;;;5095270;28;20625;-77
2023/06/12 11:41:16;;;;;;;3.58;2.95;;;28.70;29.20;;;;;;5094869;28;20265;-76
2023/06/12 11:43:45;;;;;;;4.78;3.15;;;28.40;29.80;;;;;;5094319;28;20256;-76
2023/06/12 11:46:13;;;;;;;5.15;3.30;;;28.30;31.00;;;;;;5094670;28;20218;-76
2023/06/12 11:48:41;;;;;;;4.20;2.85;;;28.30;29.50;;;;;;5094942;28;20217;-77
2023/06/12 11:51:12;;;;;;;3.67;3.20;;;28.20;30.40;;;;;;5095315;28;20218;-77
2023/06/12 11:53:41;;;;;;;8.27;3.43;;;27.80;29.70;;;;;;5092703;28;20214;-76
2023/06/12 11:56:10;;;;;;;8.40;3.30;;;27.50;29.70;;;;;;5094127;28;20210;-78
2023/06/12 11:58:44;;;;;;;5.40;3.00;;;27.10;29.70;;;;;;5094484;28;20202;-78
2023/06/12 12:01:14;;;;;;;6.10;3.10;;;27.00;30.30;;;;;;5094308;28;20203;-76
2023/06/12 12:03:44;;;;;;;5.00;3.10;;;27.30;31.60;;;;;;5093065;28;20657;-77
2023/06/12 12:06:13;;;;;;;3.20;2.90;;;27.10;30.20;;;;;;5093999;28;20732;-77
2023/06/12 12:08:42;;;;;;;3.90;3.10;;;27.30;32.50;;;;;;5094076;28;20217;-78
2023/06/12 12:11:18;;;;;;;3.93;3.13;;;27.40;30.00;;;;;;5093861;28;20227;-75
2023/06/12 12:13:51;;;;;;;3.40;2.97;;;26.90;31.80;;;;;;5094481;28;20295;-77
2023/06/12 12:16:24;;;;;;;4.53;3.17;;;27.20;30.90;;;;;;5094582;28;20218;-78
2023/06/12 12:18:53;;;;;;;4.67;3.00;;;27.10;29.10;;;;;;5094156;28;20211;-78
2023/06/12 12:21:23;;;;;;;3.70;2.93;;;27.00;29.50;;;;;;5097774;28;20207;-76
2023/06/12 12:23:54;;;;;;;4.40;3.03;;;26.90;28.70;;;;;;5094035;28;20206;-77
2023/06/12 12:26:22;;;;;;;5.93;2.97;;;26.50;29.20;;;;;;5093492;28;20215;-76
2023/06/12 12:28:52;;;;;;;6.73;3.20;;;26.90;32.80;;;;;;5097757;28;20556;-78
2023/06/12 12:31:20;;;;;;;4.93;3.83;;;27.40;31.80;;;;;;5113803;28;20271;-78
2023/06/12 12:33:48;;;;;;;5.47;2.80;;;27.20;28.80;;;;;;5114465;28;20293;-78
2023/06/12 12:36:17;;;;;;;4.50;2.97;;;27.40;28.60;;;;;;5113473;28;20216;-78
2023/06/12 12:38:45;;;;;;;5.97;2.87;;;27.70;29.00;;;;;;5097408;28;20210;-78
2023/06/12 12:41:13;;;;;;;4.83;2.90;;;27.40;28.40;;;;;;5092785;28;20707;-78
2023/06/12 12:43:41;;;;;;;3.50;2.83;;;27.40;28.50;;;;;;5092585;28;20234;-76
2023/06/12 12:46:10;;;;;;;3.80;3.00;;;26.90;27.70;;;;;;5092880;28;20264;-78
2023/06/12 12:48:39;;;;;;;5.43;3.40;;;26.80;28.10;;;;;;5092311;28;20207;-76
2023/06/12 12:51:07;;;;;;;6.90;3.30;;;26.90;30.90;;;;;;5092788;28;20381;-77
2023/06/12 12:53:38;;;;;;;6.90;3.10;;;27.00;30.40;;;;;;5092538;28;20225;-79
2023/06/12 12:56:06;;;;;;;4.83;3.10;;;27.40;32.30;;;;;;5092267;28;20203;-77
2023/06/12 12:58:34;;;;;;;3.23;2.93;;;27.30;30.00;;;;;;5093047;28;20206;-77